Time;durP1;ratioP1;P1;durP2;ratioP2;P2;SDS_P1;SDS_P2;PMS_P1;PMS_P2;Temp;Humidity;BMP_temperature;BMP_pressure;BME280_temperature;BME280_humidity;BME280_pressure;Samples;Min_cycle;Max_cycle;Signal;HPM_P1;HPM_P2
2023/09/14 00:01:08;;;;;;;16.25;2.22;;;13.80;99.90;;;;;;4267336;27;20376;-79
2023/09/14 00:03:09;;;;;;;5.18;1.10;;;13.80;99.90;;;;;;4264285;27;20094;-80
2023/09/14 00:05:10;;;;;;;3.65;1.00;;;13.80;99.90;;;;;;4281271;27;20034;-80
2023/09/14 00:07:11;;;;;;;3.63;0.90;;;13.80;99.90;;;;;;4267437;27;20035;-80
2023/09/14 00:09:11;;;;;;;2.58;1.20;;;13.80;99.90;;;;;;4267103;27;20043;-81
2023/09/14 00:11:13;;;;;;;4.22;1.27;;;13.80;99.90;;;;;;4248663;27;20429;-81
2023/09/14 00:13:13;;;;;;;3.38;1.10;;;13.80;99.90;;;;;;4248275;27;20536;-81
2023/09/14 00:15:14;;;;;;;4.70;1.27;;;13.70;99.90;;;;;;4247881;27;20039;-81
2023/09/14 00:17:15;;;;;;;4.95;1.25;;;13.80;99.90;;;;;;4249295;27;20131;-81
2023/09/14 00:19:16;;;;;;;4.00;1.10;;;13.80;99.90;;;;;;4248889;27;20035;-80
2023/09/14 00:21:16;;;;;;;4.85;1.05;;;13.80;99.90;;;;;;4249653;27;20050;-81
2023/09/14 00:23:17;;;;;;;5.93;1.63;;;13.80;99.90;;;;;;4249266;27;20043;-81
2023/09/14 00:25:19;;;;;;;7.72;1.95;;;13.80;99.90;;;;;;4249409;27;20469;-81
2023/09/14 00:27:19;;;;;;;2.30;0.90;;;13.80;99.90;;;;;;4249006;27;20499;-81
2023/09/14 00:29:20;;;;;;;3.53;1.00;;;13.80;99.90;;;;;;4249172;27;20043;-81
2023/09/14 00:31:21;;;;;;;3.97;1.27;;;13.80;99.90;;;;;;4249184;27;20039;-80
2023/09/14 00:33:25;;;;;;;3.28;1.10;;;13.80;99.90;;;;;;4249075;27;20066;-80
2023/09/14 00:35:25;;;;;;;3.97;1.10;;;13.90;99.90;;;;;;4248891;27;20035;-80
2023/09/14 00:37:26;;;;;;;6.03;1.15;;;14.50;99.90;;;;;;4247603;27;20062;-80
2023/09/14 00:39:27;;;;;;;3.72;1.10;;;13.90;99.90;;;;;;4248771;27;20047;-81
2023/09/14 00:41:28;;;;;;;4.13;1.40;;;13.90;99.90;;;;;;4247741;27;20484;-81
2023/09/14 00:43:28;;;;;;;4.32;1.20;;;13.90;99.90;;;;;;4248652;27;20105;-81
2023/09/14 00:45:31;;;;;;;3.25;1.10;;;13.80;99.90;;;;;;4248931;27;20445;-81
2023/09/14 00:47:32;;;;;;;6.82;2.25;;;13.80;99.90;;;;;;4249030;27;20399;-81
2023/09/14 00:49:33;;;;;;;3.65;1.25;;;13.90;99.90;;;;;;4248909;27;20050;-81
2023/09/14 00:51:34;;;;;;;3.05;1.23;;;13.80;99.90;;;;;;4248677;27;20039;-81
2023/09/14 00:53:35;;;;;;;7.63;1.50;;;13.80;99.90;;;;;;4248356;27;20547;-81
2023/09/14 00:55:36;;;;;;;2.50;1.00;;;13.80;99.90;;;;;;4248679;27;20039;-82
2023/09/14 00:57:38;;;;;;;9.00;1.52;;;13.80;99.90;;;;;;4247240;27;20051;-81
2023/09/14 00:59:40;;;;;;;4.13;1.15;;;13.80;99.90;;;;;;4248655;27;20043;-81
2023/09/14 01:01:40;;;;;;;7.72;1.13;;;13.80;99.90;;;;;;4248673;27;20045;-81
2023/09/14 01:03:41;;;;;;;4.55;1.80;;;13.80;99.90;;;;;;4226903;27;20040;-81
2023/09/14 01:05:48;;;;;;;2.13;1.23;;;13.80;99.90;;;;;;4214438;28;20075;-81
2023/09/14 01:07:49;;;;;;;5.72;1.10;;;13.80;99.90;;;;;;4214506;28;20122;-81
2023/09/14 01:09:50;;;;;;;4.95;1.70;;;13.70;99.90;;;;;;4214612;28;20376;-81
2023/09/14 01:11:50;;;;;;;5.70;1.42;;;13.80;99.90;;;;;;4214592;28;20143;-81
2023/09/14 01:13:51;;;;;;;6.50;1.58;;;13.80;99.90;;;;;;4214587;28;20057;-81
2023/09/14 01:15:59;;;;;;;5.93;1.30;;;13.80;99.90;;;;;;4220986;28;20498;-81
2023/09/14 01:18:26;;;;;;;5.32;1.30;;;13.80;99.90;;;;;;4213504;28;20036;-81
2023/09/14 01:20:38;;;;;;;4.93;1.73;;;13.70;99.90;;;;;;4231505;28;20047;-81
2023/09/14 01:23:04;;;;;;;3.10;0.88;;;13.70;99.90;;;;;;4213129;28;20178;-82
2023/09/14 01:25:30;;;;;;;9.98;1.10;;;13.80;99.90;;;;;;4231104;28;20062;-80
2023/09/14 01:27:31;;;;;;;2.92;0.90;;;13.70;99.90;;;;;;4212943;28;20377;-80
2023/09/14 01:29:32;;;;;;;4.00;0.98;;;13.80;99.90;;;;;;4231182;28;20058;-80
2023/09/14 01:31:32;;;;;;;3.30;0.90;;;13.70;99.90;;;;;;4213005;28;20040;-80
2023/09/14 01:33:33;;;;;;;5.45;1.02;;;13.80;99.90;;;;;;4231264;28;20397;-80
2023/09/14 01:35:42;;;;;;;3.20;0.90;;;13.80;99.90;;;;;;4231176;28;20036;-80
2023/09/14 01:37:43;;;;;;;;;;;13.80;99.90;;;;;;4213551;28;20093;-80
2023/09/14 01:39:45;;;;;;;2.22;1.02;;;13.80;99.90;;;;;;4230800;28;19975;-80
2023/09/14 01:41:47;;;;;;;5.07;1.88;;;13.70;99.90;;;;;;4231159;28;20047;-81
2023/09/14 01:43:51;;;;;;;2.35;1.00;;;13.70;99.90;;;;;;4213130;28;20044;-81
2023/09/14 01:45:53;;;;;;;5.35;0.90;;;13.80;99.90;;;;;;4231100;28;20535;-81
2023/09/14 01:47:55;;;;;;;3.70;1.17;;;13.80;99.90;;;;;;4179550;28;20132;-81
2023/09/14 01:49:56;;;;;;;3.13;1.48;;;13.80;99.90;;;;;;4213213;28;20047;-81
2023/09/14 01:51:57;;;;;;;2.88;1.00;;;13.80;99.90;;;;;;4230664;28;20043;-81
2023/09/14 01:53:58;;;;;;;6.32;1.00;;;13.80;99.90;;;;;;4230982;28;20406;-80
2023/09/14 01:55:59;;;;;;;4.13;2.10;;;13.80;99.90;;;;;;4231014;28;20054;-81
2023/09/14 01:57:59;;;;;;;6.13;1.10;;;13.70;99.90;;;;;;4231107;28;20051;-81
2023/09/14 02:00:00;;;;;;;4.85;1.48;;;13.70;99.90;;;;;;4212831;28;20048;-81
2023/09/14 02:02:01;;;;;;;2.63;1.00;;;13.60;99.90;;;;;;4230262;28;20438;-80
2023/09/14 02:04:02;;;;;;;3.63;0.85;;;13.60;99.90;;;;;;4229806;28;20083;-81
2023/09/14 02:06:02;;;;;;;3.28;1.20;;;13.60;99.90;;;;;;4212787;28;20052;-80
2023/09/14 02:08:03;;;;;;;4.10;1.20;;;13.60;99.90;;;;;;4212702;28;20472;-80
2023/09/14 02:10:05;;;;;;;3.75;1.55;;;13.60;99.90;;;;;;4212602;28;20131;-81
2023/09/14 02:12:05;;;;;;;3.72;1.10;;;13.80;99.90;;;;;;4212275;28;20117;-81
2023/09/14 02:14:06;;;;;;;4.20;1.42;;;13.50;99.90;;;;;;4230892;28;20051;-81
2023/09/14 02:16:07;;;;;;;2.80;0.80;;;13.50;99.90;;;;;;4230612;28;20056;-80
2023/09/14 02:18:08;;;;;;;4.38;1.00;;;13.50;99.90;;;;;;4230587;28;20066;-80
2023/09/14 02:20:09;;;;;;;3.10;1.00;;;13.40;99.90;;;;;;4230901;28;20483;-80
2023/09/14 02:22:10;;;;;;;2.58;0.85;;;13.40;99.90;;;;;;4230944;28;20483;-81
2023/09/14 02:24:11;;;;;;;7.00;1.27;;;13.50;99.90;;;;;;4230385;28;20105;-80
2023/09/14 02:26:12;;;;;;;4.55;1.23;;;13.50;99.90;;;;;;4230799;28;20032;-80
2023/09/14 02:28:13;;;;;;;9.65;2.33;;;13.40;99.90;;;;;;4230727;28;20047;-81
2023/09/14 02:30:14;;;;;;;4.15;1.25;;;13.50;99.90;;;;;;4230796;28;20048;-81
2023/09/14 02:32:15;;;;;;;2.65;1.08;;;13.40;99.90;;;;;;4230753;28;20402;-81
2023/09/14 02:34:15;;;;;;;5.95;1.55;;;13.40;99.90;;;;;;4231929;28;20119;-81
2023/09/14 02:36:16;;;;;;;5.68;1.58;;;13.50;99.90;;;;;;4212396;28;20803;-81
2023/09/14 02:38:18;;;;;;;3.28;1.30;;;13.50;99.90;;;;;;4230838;28;20047;-81
2023/09/14 02:40:19;;;;;;;3.03;1.15;;;13.50;99.90;;;;;;4230618;28;20047;-81
2023/09/14 02:42:20;;;;;;;2.95;0.90;;;13.50;99.90;;;;;;4233071;28;20051;-80
2023/09/14 02:44:20;;;;;;;5.90;1.05;;;13.50;99.90;;;;;;4233379;28;20047;-80
2023/09/14 02:46:21;;;;;;;4.05;1.35;;;13.50;99.90;;;;;;4215661;28;20039;-80
2023/09/14 02:48:22;;;;;;;1.48;0.93;;;13.50;99.90;;;;;;4233502;28;20384;-81
2023/09/14 02:50:23;;;;;;;2.45;0.90;;;13.50;99.90;;;;;;4233753;28;20495;-81
2023/09/14 02:52:24;;;;;;;7.78;1.00;;;13.50;99.90;;;;;;4233522;28;20044;-81
2023/09/14 02:54:24;;;;;;;5.32;1.58;;;13.40;99.90;;;;;;4215577;28;20160;-81
2023/09/14 02:56:25;;;;;;;6.95;1.02;;;13.40;99.90;;;;;;4233181;28;20526;-81
2023/09/14 02:58:26;;;;;;;3.13;1.10;;;13.40;99.90;;;;;;4215182;28;20055;-80
2023/09/14 03:00:27;;;;;;;3.55;0.80;;;13.40;99.90;;;;;;4233556;28;20576;-81
2023/09/14 03:02:28;;;;;;;5.88;1.17;;;13.40;99.90;;;;;;4233503;28;20832;-81
2023/09/14 03:04:29;;;;;;;3.85;1.20;;;13.40;99.90;;;;;;4214841;28;20052;-80
2023/09/14 03:06:29;;;;;;;3.30;1.17;;;13.40;99.90;;;;;;4233138;28;20515;-81
2023/09/14 03:08:30;;;;;;;2.90;0.85;;;13.30;99.90;;;;;;4233028;28;20475;-81
2023/09/14 03:10:31;;;;;;;2.38;1.20;;;13.30;99.90;;;;;;4233454;28;20042;-81
2023/09/14 03:12:32;;;;;;;2.97;1.08;;;13.30;99.90;;;;;;4233328;28;20036;-81
2023/09/14 03:14:33;;;;;;;5.13;1.13;;;13.30;99.90;;;;;;4214901;28;20109;-81
2023/09/14 03:16:34;;;;;;;4.03;1.27;;;13.30;99.90;;;;;;4214644;28;20052;-81
2023/09/14 03:18:35;;;;;;;5.43;1.20;;;13.20;99.90;;;;;;4233182;28;20147;-81
2023/09/14 03:20:38;;;;;;;4.07;1.00;;;13.20;99.90;;;;;;4232889;28;20044;-81
2023/09/14 03:22:39;;;;;;;3.83;1.30;;;13.20;99.90;;;;;;4232912;28;20046;-81
2023/09/14 03:24:40;;;;;;;4.38;1.70;;;13.20;99.90;;;;;;4214676;28;20040;-81
2023/09/14 03:26:40;;;;;;;3.50;1.30;;;13.20;99.90;;;;;;4233041;28;20043;-81
2023/09/14 03:28:41;;;;;;;7.63;1.10;;;13.20;99.90;;;;;;4233077;28;20404;-81
2023/09/14 03:30:42;;;;;;;4.80;1.50;;;13.10;99.90;;;;;;4214885;28;20048;-80
2023/09/14 03:32:43;;;;;;;2.15;1.20;;;13.10;99.90;;;;;;4232322;28;20047;-81
2023/09/14 03:34:44;;;;;;;6.60;1.40;;;13.10;99.90;;;;;;4232713;28;20458;-81
2023/09/14 03:36:45;;;;;;;4.15;1.30;;;13.20;99.90;;;;;;4232727;28;20130;-81
2023/09/14 03:38:46;;;;;;;5.00;1.30;;;13.10;99.90;;;;;;4232917;28;20539;-81
2023/09/14 03:40:47;;;;;;;4.65;1.08;;;13.10;99.90;;;;;;4232563;28;20046;-80
2023/09/14 03:42:49;;;;;;;6.30;1.80;;;13.10;99.90;;;;;;4232199;28;20445;-80
2023/09/14 03:44:50;;;;;;;3.80;1.00;;;13.20;99.90;;;;;;4232824;28;20097;-81
2023/09/14 03:46:51;;;;;;;2.55;0.95;;;13.10;99.90;;;;;;4232700;28;20072;-81
2023/09/14 03:48:51;;;;;;;2.47;1.00;;;13.10;99.90;;;;;;4232537;28;20091;-81
2023/09/14 03:50:54;;;;;;;4.70;1.45;;;13.10;99.90;;;;;;4232326;28;20039;-81
2023/09/14 03:52:54;;;;;;;5.95;1.00;;;13.10;99.90;;;;;;4213435;28;20492;-81
2023/09/14 03:54:55;;;;;;;4.43;1.00;;;13.00;99.90;;;;;;4231882;28;20043;-81
2023/09/14 03:56:56;;;;;;;4.32;1.25;;;13.10;99.90;;;;;;4232328;28;20492;-81
2023/09/14 03:58:57;;;;;;;2.67;1.10;;;13.00;99.90;;;;;;4232323;28;20514;-81
2023/09/14 04:00:59;;;;;;;4.78;1.00;;;13.00;99.90;;;;;;4232272;28;20043;-81
2023/09/14 04:03:00;;;;;;;1.70;0.90;;;12.90;99.90;;;;;;4232480;28;20480;-81
2023/09/14 04:05:14;;;;;;;3.25;1.35;;;13.00;99.90;;;;;;4232406;28;20035;-81
2023/09/14 04:07:16;;;;;;;5.45;1.20;;;12.90;99.90;;;;;;4232403;28;20047;-81
2023/09/14 04:09:16;;;;;;;4.82;1.45;;;12.90;99.90;;;;;;4231697;28;20072;-81
2023/09/14 04:11:17;;;;;;;2.95;1.58;;;12.80;99.90;;;;;;4232067;28;20395;-81
2023/09/14 04:13:28;;;;;;;3.30;1.05;;;12.80;99.90;;;;;;4232322;28;20388;-81
2023/09/14 04:15:29;;;;;;;2.42;1.00;;;12.80;99.90;;;;;;4213881;28;20413;-80
2023/09/14 04:17:30;;;;;;;2.28;0.90;;;12.80;99.90;;;;;;4232007;28;20108;-80
2023/09/14 04:19:30;;;;;;;4.93;1.27;;;12.70;99.90;;;;;;4231855;28;20379;-80
2023/09/14 04:21:32;;;;;;;7.78;2.15;;;12.70;99.90;;;;;;4231934;28;20040;-80
2023/09/14 04:23:32;;;;;;;2.58;0.82;;;12.70;99.90;;;;;;4214171;28;20554;-81
2023/09/14 04:25:33;;;;;;;2.80;1.05;;;12.60;99.90;;;;;;4232086;28;20035;-81
2023/09/14 04:27:34;;;;;;;12.60;1.65;;;12.60;99.90;;;;;;4232152;28;20514;-80
2023/09/14 04:29:35;;;;;;;5.57;1.00;;;12.60;99.90;;;;;;4231994;28;20096;-80
2023/09/14 04:31:36;;;;;;;2.13;1.10;;;12.60;99.90;;;;;;4231667;28;20068;-81
2023/09/14 04:33:36;;;;;;;1.83;0.93;;;12.60;99.90;;;;;;4231988;28;20043;-81
2023/09/14 04:35:37;;;;;;;6.75;1.25;;;12.50;99.90;;;;;;4196800;28;20048;-81
2023/09/14 04:37:38;;;;;;;5.93;1.20;;;12.50;99.90;;;;;;4231950;28;20042;-80
2023/09/14 04:39:39;;;;;;;3.53;1.05;;;12.40;99.90;;;;;;4231639;28;20047;-80
2023/09/14 04:41:40;;;;;;;3.17;1.00;;;12.40;99.90;;;;;;4231601;28;20058;-80
2023/09/14 04:43:40;;;;;;;5.50;1.50;;;12.40;99.90;;;;;;4230706;28;20054;-80
2023/09/14 04:45:41;;;;;;;6.32;1.13;;;12.40;99.90;;;;;;4213785;28;20083;-80
2023/09/14 04:47:42;;;;;;;2.65;1.05;;;12.40;99.90;;;;;;4213612;28;20055;-80
2023/09/14 04:49:43;;;;;;;4.82;1.10;;;12.40;99.90;;;;;;4231436;28;20054;-80
2023/09/14 04:51:46;;;;;;;2.88;1.10;;;12.30;99.90;;;;;;4213555;28;20508;-80
2023/09/14 04:53:47;;;;;;;6.35;1.20;;;12.30;99.90;;;;;;4231643;28;20137;-81
2023/09/14 04:55:47;;;;;;;2.58;1.10;;;12.20;99.90;;;;;;4231033;28;20044;-80
2023/09/14 04:57:49;;;;;;;5.32;1.50;;;12.20;99.90;;;;;;4213059;28;20111;-80
2023/09/14 04:59:50;;;;;;;3.15;1.65;;;12.10;99.90;;;;;;4231159;28;20051;-81
2023/09/14 05:01:52;;;;;;;3.17;1.10;;;12.10;99.90;;;;;;4231066;28;20046;-81
2023/09/14 05:03:53;;;;;;;6.40;2.05;;;12.10;99.90;;;;;;4235846;27;20116;-81
2023/09/14 05:05:55;;;;;;;5.15;1.83;;;12.00;99.90;;;;;;4230387;28;20043;-81
2023/09/14 05:07:55;;;;;;;5.32;1.20;;;12.00;99.90;;;;;;4231102;28;20050;-81
2023/09/14 05:09:56;;;;;;;5.15;1.20;;;12.00;99.90;;;;;;4231173;28;20500;-81
2023/09/14 05:11:57;;;;;;;4.93;1.42;;;12.00;99.90;;;;;;4231655;28;20411;-81
2023/09/14 05:13:58;;;;;;;5.97;1.42;;;12.00;99.90;;;;;;4212884;28;20566;-81
2023/09/14 05:15:58;;;;;;;7.05;1.63;;;12.00;99.90;;;;;;4230828;28;20492;-82
2023/09/14 05:17:59;;;;;;;4.68;1.10;;;12.00;99.90;;;;;;4231296;28;20040;-81
2023/09/14 05:20:07;;;;;;;3.63;1.33;;;12.00;99.90;;;;;;4231209;28;20036;-81
2023/09/14 05:22:10;;;;;;;7.70;1.77;;;11.90;99.90;;;;;;4231399;28;20491;-81
2023/09/14 05:24:11;;;;;;;4.80;1.40;;;11.90;99.90;;;;;;4231035;28;20532;-81
2023/09/14 05:26:12;;;;;;;3.03;1.10;;;11.80;99.90;;;;;;4231421;28;20047;-81
2023/09/14 05:28:14;;;;;;;2.80;1.45;;;12.00;99.90;;;;;;4213124;28;20050;-81
2023/09/14 05:30:15;;;;;;;5.72;1.40;;;11.90;99.90;;;;;;4230855;28;20050;-80
2023/09/14 05:32:15;;;;;;;12.02;1.55;;;11.90;99.90;;;;;;4231167;28;20114;-80
2023/09/14 05:34:16;;;;;;;4.32;1.67;;;11.90;99.90;;;;;;4212954;28;20047;-81
2023/09/14 05:36:19;;;;;;;8.20;2.03;;;12.10;99.90;;;;;;4231021;28;20035;-80
2023/09/14 05:38:20;;;;;;;6.45;1.48;;;11.90;99.90;;;;;;4231345;28;20084;-81
2023/09/14 05:40:21;;;;;;;4.15;1.40;;;12.00;99.90;;;;;;4231039;28;20118;-80
2023/09/14 05:42:22;;;;;;;3.17;1.92;;;11.20;99.90;;;;;;4231255;28;20075;-81
2023/09/14 05:44:30;;;;;;;7.10;2.25;;;12.00;99.90;;;;;;4230755;28;20043;-81
2023/09/14 05:46:31;;;;;;;8.35;1.73;;;12.00;99.90;;;;;;4230998;28;20415;-81
2023/09/14 05:48:33;;;;;;;6.63;1.35;;;12.00;99.90;;;;;;4213067;28;20044;-81
2023/09/14 05:50:35;;;;;;;7.20;1.67;;;12.10;99.90;;;;;;4231029;28;20502;-81
2023/09/14 05:52:36;;;;;;;5.43;1.33;;;12.10;99.90;;;;;;4230980;28;20127;-81
2023/09/14 05:54:37;;;;;;;6.80;1.60;;;12.10;99.90;;;;;;4230865;28;20040;-80
2023/09/14 05:56:38;;;;;;;9.93;1.60;;;12.10;99.90;;;;;;4230795;28;20040;-80
2023/09/14 05:58:38;;;;;;;2.95;1.10;;;12.10;99.90;;;;;;4212866;28;20050;-80
2023/09/14 06:00:42;;;;;;;7.80;1.77;;;12.20;99.90;;;;;;4231199;28;20051;-81
2023/09/14 06:02:43;;;;;;;6.65;1.58;;;12.20;99.90;;;;;;4212844;28;20052;-81
2023/09/14 06:04:44;;;;;;;15.82;2.25;;;12.20;99.90;;;;;;4230918;28;20044;-81
2023/09/14 06:06:44;;;;;;;5.68;2.10;;;12.20;99.90;;;;;;4230879;28;20039;-81
2023/09/14 06:08:45;;;;;;;5.65;1.63;;;12.20;99.90;;;;;;4229963;28;20039;-80
2023/09/14 06:10:46;;;;;;;6.60;2.15;;;12.30;99.90;;;;;;4234143;28;20100;-81
2023/09/14 06:12:47;;;;;;;3.45;1.63;;;12.30;99.90;;;;;;4211914;28;20049;-80
2023/09/14 06:14:47;;;;;;;3.85;1.85;;;12.30;99.90;;;;;;4230745;28;20040;-80
2023/09/14 06:16:48;;;;;;;3.42;1.33;;;12.30;99.90;;;;;;4232119;28;20055;-80
2023/09/14 06:18:49;;;;;;;4.45;1.30;;;12.30;99.90;;;;;;4234027;28;20048;-80
2023/09/14 06:20:50;;;;;;;9.80;1.15;;;12.30;99.90;;;;;;4234016;28;20134;-80
2023/09/14 06:22:51;;;;;;;5.90;1.50;;;12.30;99.90;;;;;;4233602;28;20043;-80
2023/09/14 06:24:51;;;;;;;9.77;1.40;;;12.40;99.90;;;;;;4233440;28;20399;-80
2023/09/14 06:26:54;;;;;;;30.05;1.73;;;12.40;99.90;;;;;;4234265;28;20035;-80
2023/09/14 06:28:55;;;;;;;7.53;1.30;;;12.50;99.90;;;;;;4234067;28;20499;-80
2023/09/14 06:30:56;;;;;;;3.97;1.80;;;12.50;99.90;;;;;;4234667;27;20404;-80
2023/09/14 06:32:58;;;;;;;4.18;1.10;;;12.50;99.90;;;;;;4250493;27;20080;-80
2023/09/14 06:34:59;;;;;;;5.10;1.08;;;12.50;99.90;;;;;;4250390;27;20039;-80
2023/09/14 06:36:59;;;;;;;5.82;1.30;;;12.60;99.90;;;;;;4232473;28;20078;-80
2023/09/14 06:39:01;;;;;;;4.68;1.20;;;12.60;99.90;;;;;;4250649;27;20129;-80
2023/09/14 06:41:01;;;;;;;11.27;2.65;;;12.70;99.90;;;;;;4250603;27;20460;-80
2023/09/14 06:43:02;;;;;;;6.47;1.08;;;12.70;99.90;;;;;;4250628;27;20047;-80
2023/09/14 06:45:06;;;;;;;5.80;1.38;;;12.80;99.90;;;;;;4248418;27;20306;-80
2023/09/14 06:47:06;;;;;;;5.28;1.17;;;12.80;99.90;;;;;;4231030;28;20056;-80
2023/09/14 06:49:07;;;;;;;3.97;1.20;;;12.90;99.90;;;;;;4250199;27;20585;-80
2023/09/14 06:51:08;;;;;;;6.60;1.02;;;13.00;99.90;;;;;;4250363;27;20039;-80
2023/09/14 06:53:09;;;;;;;7.95;1.42;;;13.10;99.90;;;;;;4232277;28;20507;-80
2023/09/14 06:55:10;;;;;;;5.13;1.10;;;13.20;99.90;;;;;;4250237;27;20077;-80
2023/09/14 06:57:11;;;;;;;6.53;1.30;;;13.20;99.90;;;;;;4250516;27;20475;-80
2023/09/14 06:59:13;;;;;;;8.52;1.38;;;13.40;99.90;;;;;;4232034;28;20039;-80
2023/09/14 07:01:14;;;;;;;3.38;0.85;;;13.50;99.90;;;;;;4250474;27;20035;-81
2023/09/14 07:03:14;;;;;;;6.25;1.10;;;13.50;99.90;;;;;;4250921;27;20095;-80
2023/09/14 07:05:15;;;;;;;2.20;0.80;;;13.60;99.90;;;;;;4249477;27;20054;-80
2023/09/14 07:07:16;;;;;;;5.32;1.10;;;13.70;99.90;;;;;;4250230;27;20043;-82
2023/09/14 07:09:17;;;;;;;5.88;1.67;;;13.80;99.90;;;;;;4250501;27;20448;-82
2023/09/14 07:11:18;;;;;;;4.65;0.90;;;14.00;99.90;;;;;;4248947;27;20073;-82
2023/09/14 07:13:19;;;;;;;6.07;0.98;;;14.40;99.90;;;;;;4218100;28;20127;-83
2023/09/14 07:15:19;;;;;;;4.13;1.17;;;14.20;99.90;;;;;;4222783;28;20455;-82
2023/09/14 07:17:20;;;;;;;7.05;1.00;;;14.30;99.90;;;;;;4249252;27;20055;-82
2023/09/14 07:19:26;;;;;;;7.35;1.45;;;14.50;99.90;;;;;;4233143;28;20416;-82
2023/09/14 07:21:32;;;;;;;4.75;1.00;;;14.60;99.90;;;;;;4242074;27;20051;-82
2023/09/14 07:23:32;;;;;;;2.58;0.60;;;14.70;99.90;;;;;;4250188;27;20467;-82
2023/09/14 07:25:33;;;;;;;5.78;1.10;;;14.90;99.90;;;;;;4250020;27;20041;-82
2023/09/14 07:27:35;;;;;;;5.45;0.85;;;15.00;99.90;;;;;;4249832;27;20039;-82
2023/09/14 07:29:35;;;;;;;4.43;1.10;;;15.10;99.90;;;;;;4248624;27;20398;-82
2023/09/14 07:31:36;;;;;;;2.88;0.70;;;15.20;99.90;;;;;;4232717;28;20119;-82
2023/09/14 07:33:39;;;;;;;1.88;0.75;;;15.10;99.90;;;;;;4232870;28;20047;-84
2023/09/14 07:35:40;;;;;;;4.32;1.10;;;15.40;99.90;;;;;;4232930;28;20032;-82
2023/09/14 07:37:41;;;;;;;8.18;1.33;;;15.60;99.90;;;;;;4232645;28;20130;-82
2023/09/14 07:39:43;;;;;;;6.55;1.10;;;15.70;99.90;;;;;;4232354;28;20526;-83
2023/09/14 07:41:44;;;;;;;4.97;0.80;;;15.90;99.90;;;;;;4214814;28;20048;-83
2023/09/14 07:43:45;;;;;;;5.53;0.90;;;16.10;99.90;;;;;;4232955;28;20496;-82
2023/09/14 07:45:45;;;;;;;4.53;0.90;;;16.30;99.90;;;;;;4232923;28;20480;-83
2023/09/14 07:47:46;;;;;;;6.43;0.88;;;16.40;99.90;;;;;;4214647;28;20101;-83
2023/09/14 07:49:47;;;;;;;5.50;0.80;;;16.50;99.90;;;;;;4232772;28;20043;-83
2023/09/14 07:51:48;;;;;;;2.45;0.65;;;16.70;99.90;;;;;;4214867;28;20114;-84
2023/09/14 07:53:48;;;;;;;4.32;0.80;;;16.80;99.90;;;;;;4214812;28;20063;-83
2023/09/14 07:55:52;;;;;;;6.13;1.00;;;16.70;99.90;;;;;;4233245;28;20385;-83
2023/09/14 07:57:53;;;;;;;3.70;0.80;;;16.90;99.90;;;;;;4233660;28;20447;-83
2023/09/14 07:59:54;;;;;;;3.15;0.70;;;17.00;99.90;;;;;;4233805;28;20043;-83
2023/09/14 08:01:55;;;;;;;3.30;0.60;;;;;;;;;;4214681;28;20132;-83
2023/09/14 08:03:57;;;;;;;3.65;1.02;;;17.00;99.90;;;;;;4233026;28;20052;-83
2023/09/14 08:05:57;;;;;;;3.13;0.77;;;17.00;99.90;;;;;;4232598;28;20043;-82
2023/09/14 08:07:58;;;;;;;3.15;0.80;;;17.10;99.90;;;;;;4249810;27;20042;-83
2023/09/14 08:09:59;;;;;;;5.05;0.65;;;17.10;99.90;;;;;;4231356;28;20092;-83
2023/09/14 08:12:00;;;;;;;4.38;0.95;;;17.10;99.90;;;;;;4249937;27;20402;-83
2023/09/14 08:14:00;;;;;;;2.78;0.70;;;17.10;99.90;;;;;;4250060;27;20126;-83
2023/09/14 08:16:05;;;;;;;3.20;0.63;;;17.20;99.90;;;;;;4250023;27;20170;-83
2023/09/14 08:18:06;;;;;;;4.45;1.00;;;17.30;99.90;;;;;;4249771;27;20051;-82
2023/09/14 08:20:07;;;;;;;3.35;1.00;;;17.50;99.90;;;;;;4231729;28;20036;-82
2023/09/14 08:22:08;;;;;;;3.75;0.60;;;17.90;99.90;;;;;;4251309;27;20042;-82
2023/09/14 08:24:09;;;;;;;3.63;0.70;;;18.30;99.90;;;;;;4249137;27;20509;-83
2023/09/14 08:26:10;;;;;;;3.40;0.80;;;18.70;99.90;;;;;;4231906;28;20040;-82
2023/09/14 08:28:13;;;;;;;2.78;0.63;;;19.00;99.90;;;;;;4249732;27;20118;-83
2023/09/14 08:30:15;;;;;;;3.60;0.80;;;19.20;99.90;;;;;;4231502;28;20068;-84
2023/09/14 08:32:16;;;;;;;4.72;0.85;;;19.20;99.90;;;;;;4231195;28;20523;-84
2023/09/14 08:34:16;;;;;;;6.90;1.80;;;19.20;99.90;;;;;;4249330;27;20502;-84
2023/09/14 08:36:17;;;;;;;3.13;1.10;;;19.20;99.90;;;;;;4249156;27;20040;-82
2023/09/14 08:38:18;;;;;;;10.88;1.25;;;19.20;99.90;;;;;;4249212;27;20454;-82
2023/09/14 08:40:19;;;;;;;5.15;1.73;;;19.20;99.90;;;;;;4248651;27;20043;-82
2023/09/14 08:42:24;;;;;;;5.30;1.10;;;19.00;99.90;;;;;;4225793;28;20039;-83
2023/09/14 08:44:26;;;;;;;3.00;0.95;;;19.00;99.90;;;;;;4249091;27;20039;-83
2023/09/14 08:46:27;;;;;;;7.40;1.00;;;19.10;99.90;;;;;;4249121;27;20118;-82
2023/09/14 08:48:31;;;;;;;3.70;0.98;;;19.00;99.90;;;;;;4249083;27;20084;-83
2023/09/14 08:50:33;;;;;;;5.78;1.40;;;19.10;99.90;;;;;;4248915;27;20039;-82
2023/09/14 08:52:36;;;;;;;1.98;1.00;;;19.50;99.90;;;;;;4248755;27;20476;-82
2023/09/14 08:54:37;;;;;;;4.43;1.00;;;20.00;99.90;;;;;;4230490;28;20487;-82
2023/09/14 08:56:39;;;;;;;7.05;1.30;;;20.80;99.90;;;;;;4248879;27;20039;-82
2023/09/14 08:58:42;;;;;;;4.05;0.90;;;21.40;99.90;;;;;;4247420;27;20436;-82
2023/09/14 09:00:44;;;;;;;4.07;0.70;;;21.80;99.00;;;;;;4235337;27;20050;-82
2023/09/14 09:02:50;;;;;;;5.72;1.13;;;22.10;98.10;;;;;;4231737;28;20071;-82
2023/09/14 09:04:50;;;;;;;3.83;0.75;;;22.60;97.80;;;;;;4231409;28;20065;-82
2023/09/14 09:06:52;;;;;;;1.17;0.68;;;23.00;97.30;;;;;;4231662;28;20040;-82
2023/09/14 09:08:55;;;;;;;4.72;0.95;;;23.00;96.00;;;;;;4231577;28;20052;-82
2023/09/14 09:10:56;;;;;;;4.95;0.90;;;22.80;95.10;;;;;;4231624;28;20101;-82
2023/09/14 09:13:02;;;;;;;5.05;0.85;;;23.00;95.10;;;;;;4230763;28;20122;-82
2023/09/14 09:15:03;;;;;;;3.50;0.98;;;23.30;94.80;;;;;;4212702;28;20047;-80
2023/09/14 09:17:04;;;;;;;4.00;0.77;;;23.30;94.60;;;;;;4217330;28;20111;-82
2023/09/14 09:19:06;;;;;;;5.20;1.23;;;23.70;94.00;;;;;;4238273;27;20039;-83
2023/09/14 09:21:08;;;;;;;4.07;0.95;;;23.80;94.00;;;;;;4231047;28;20082;-82
2023/09/14 09:23:09;;;;;;;6.68;1.40;;;24.00;94.00;;;;;;4212933;28;20044;-83
2023/09/14 09:25:11;;;;;;;3.25;0.82;;;24.10;93.80;;;;;;4231217;28;20039;-82
2023/09/14 09:27:26;;;;;;;3.60;0.73;;;24.40;93.10;;;;;;4235023;27;20212;-82
2023/09/14 09:29:29;;;;;;;6.70;1.65;;;24.30;91.10;;;;;;4220695;28;20055;-86
2023/09/14 09:31:47;;;;;;;5.68;0.90;;;24.40;92.50;;;;;;4229087;28;20043;-82
2023/09/14 09:33:48;;;;;;;1.70;0.70;;;24.50;90.50;;;;;;4243542;27;20035;-83
2023/09/14 09:35:48;;;;;;;4.72;0.70;;;24.20;92.10;;;;;;4231044;28;20062;-83
2023/09/14 09:37:50;;;;;;;3.70;0.90;;;24.10;91.90;;;;;;4212617;28;20515;-83
2023/09/14 09:39:51;;;;;;;2.67;0.70;;;24.00;91.40;;;;;;4232154;28;20050;-83
2023/09/14 09:41:52;;;;;;;1.60;0.75;;;24.00;92.20;;;;;;4246407;28;20131;-83
2023/09/14 09:43:53;;;;;;;5.03;1.15;;;23.90;92.10;;;;;;4248529;28;20043;-84
2023/09/14 09:45:54;;;;;;;3.63;1.00;;;23.60;91.60;;;;;;4225910;28;20070;-83
2023/09/14 09:47:55;;;;;;;3.40;0.85;;;23.70;92.00;;;;;;4232981;28;20519;-83
2023/09/14 09:49:56;;;;;;;4.82;1.13;;;24.90;92.50;;;;;;4231952;28;20074;-84
2023/09/14 09:51:57;;;;;;;6.95;0.82;;;23.60;92.00;;;;;;4234884;27;20040;-83
2023/09/14 09:54:07;;;;;;;4.90;1.15;;;23.70;92.40;;;;;;4251477;27;20035;-83
2023/09/14 09:56:23;;;;;;;3.13;0.80;;;23.60;92.20;;;;;;4251790;27;20364;-83
2023/09/14 09:58:35;;;;;;;3.20;0.90;;;23.70;90.00;;;;;;4251684;27;20051;-84
2023/09/14 10:00:39;;;;;;;3.53;1.48;;;23.60;90.90;;;;;;4251707;27;20058;-83
2023/09/14 10:02:40;;;;;;;3.60;0.80;;;23.70;92.30;;;;;;4251971;27;20890;-83
2023/09/14 10:04:52;;;;;;;5.82;0.90;;;23.90;92.10;;;;;;4233497;28;20047;-83
2023/09/14 10:06:59;;;;;;;3.05;0.70;;;23.70;90.60;;;;;;4251521;27;20051;-84
2023/09/14 10:09:06;;;;;;;8.60;1.67;;;23.50;91.70;;;;;;4252172;27;20062;-84
2023/09/14 10:11:07;;;;;;;3.75;0.90;;;23.30;91.90;;;;;;4248436;27;20039;-84
2023/09/14 10:13:16;;;;;;;2.95;0.90;;;23.10;92.90;;;;;;4227093;27;20035;-84
2023/09/14 10:15:17;;;;;;;5.15;1.38;;;23.00;92.90;;;;;;4240443;27;20046;-84
2023/09/14 10:17:22;;;;;;;3.08;0.70;;;23.00;93.10;;;;;;4240964;27;20046;-83
2023/09/14 10:19:25;;;;;;;8.18;1.15;;;23.20;92.40;;;;;;4232935;28;20099;-84
2023/09/14 10:21:28;;;;;;;3.15;1.00;;;23.70;93.10;;;;;;4234359;28;20522;-83
2023/09/14 10:23:29;;;;;;;8.85;1.20;;;24.20;93.60;;;;;;4234481;27;20084;-85
2023/09/14 10:25:32;;;;;;;9.93;1.00;;;25.00;93.60;;;;;;4215638;28;20124;-88
2023/09/14 10:27:33;;;;;;;2.42;0.80;;;25.80;91.90;;;;;;4220502;28;20119;-87
2023/09/14 10:29:41;;;;;;;6.25;1.10;;;25.00;91.40;;;;;;4210417;28;20427;-88
2023/09/14 10:31:46;;;;;;;2.63;0.77;;;24.80;90.30;;;;;;4227676;28;20047;-88
2023/09/14 10:33:59;;;;;;;2.33;1.23;;;24.80;90.90;;;;;;4199207;28;20227;-87
2023/09/14 10:36:03;;;;;;;4.97;1.15;;;24.80;90.50;;;;;;4216224;28;20044;-87